sensor_id;sensor_type;location;lat;lon;timestamp;temperature;humidity
11597;DHT22;5854;48.072;16.286;2023-06-10T00:01:18;18.30;78.80
11597;DHT22;5854;48.072;16.286;2023-06-10T00:03:46;18.40;78.30
11597;DHT22;5854;48.072;16.286;2023-06-10T00:06:13;18.30;78.10
11597;DHT22;5854;48.072;16.286;2023-06-10T00:08:41;18.30;78.60
11597;DHT22;5854;48.072;16.286;2023-06-10T00:11:08;18.40;77.80
11597;DHT22;5854;48.072;16.286;2023-06-10T00:13:35;18.40;77.60
11597;DHT22;5854;48.072;16.286;2023-06-10T00:16:03;18.50;77.80
11597;DHT22;5854;48.072;16.286;2023-06-10T00:18:30;18.50;77.40
11597;DHT22;5854;48.072;16.286;2023-06-10T00:20:59;18.40;77.80
11597;DHT22;5854;48.072;16.286;2023-06-10T00:23:30;18.30;78.10
11597;DHT22;5854;48.072;16.286;2023-06-10T00:25:58;18.40;78.00
11597;DHT22;5854;48.072;16.286;2023-06-10T00:28:25;18.40;78.40
11597;DHT22;5854;48.072;16.286;2023-06-10T00:30:52;18.30;78.90
11597;DHT22;5854;48.072;16.286;2023-06-10T00:33:20;18.30;78.70
11597;DHT22;5854;48.072;16.286;2023-06-10T00:35:47;18.40;78.30
11597;DHT22;5854;48.072;16.286;2023-06-10T00:38:15;18.30;78.40
11597;DHT22;5854;48.072;16.286;2023-06-10T00:40:42;18.30;78.60
11597;DHT22;5854;48.072;16.286;2023-06-10T00:43:09;18.30;78.70
11597;DHT22;5854;48.072;16.286;2023-06-10T00:45:36;18.30;78.50
11597;DHT22;5854;48.072;16.286;2023-06-10T00:48:04;18.30;78.20
11597;DHT22;5854;48.072;16.286;2023-06-10T00:50:31;18.30;78.20
11597;DHT22;5854;48.072;16.286;2023-06-10T00:53:00;18.30;78.00
11597;DHT22;5854;48.072;16.286;2023-06-10T00:55:29;18.30;77.80
11597;DHT22;5854;48.072;16.286;2023-06-10T00:57:58;18.30;78.00
11597;DHT22;5854;48.072;16.286;2023-06-10T01:00:25;18.30;77.70
11597;DHT22;5854;48.072;16.286;2023-06-10T01:02:53;18.30;78.00
11597;DHT22;5854;48.072;16.286;2023-06-10T01:05:20;18.20;78.20
11597;DHT22;5854;48.072;16.286;2023-06-10T01:07:52;18.10;79.20
11597;DHT22;5854;48.072;16.286;2023-06-10T01:10:31;18.10;79.20
11597;DHT22;5854;48.072;16.286;2023-06-10T01:13:02;18.00;79.10
11597;DHT22;5854;48.072;16.286;2023-06-10T01:15:30;18.00;79.20
11597;DHT22;5854;48.072;16.286;2023-06-10T01:17:58;18.10;79.40
11597;DHT22;5854;48.072;16.286;2023-06-10T01:20:27;18.10;79.20
11597;DHT22;5854;48.072;16.286;2023-06-10T01:22:56;18.10;79.50
11597;DHT22;5854;48.072;16.286;2023-06-10T01:25:25;18.10;78.90
11597;DHT22;5854;48.072;16.286;2023-06-10T01:27:58;18.00;78.90
11597;DHT22;5854;48.072;16.286;2023-06-10T01:30:37;18.10;78.80
11597;DHT22;5854;48.072;16.286;2023-06-10T01:33:09;18.10;78.80
11597;DHT22;5854;48.072;16.286;2023-06-10T01:35:38;18.00;79.00
11597;DHT22;5854;48.072;16.286;2023-06-10T01:38:07;18.10;79.40
11597;DHT22;5854;48.072;16.286;2023-06-10T01:40:35;17.90;79.20
11597;DHT22;5854;48.072;16.286;2023-06-10T01:43:02;18.00;79.20
11597;DHT22;5854;48.072;16.286;2023-06-10T01:45:29;17.70;80.00
11597;DHT22;5854;48.072;16.286;2023-06-10T01:47:56;17.70;81.10
11597;DHT22;5854;48.072;16.286;2023-06-10T01:50:23;17.70;81.90
11597;DHT22;5854;48.072;16.286;2023-06-10T01:52:50;17.80;80.50
11597;DHT22;5854;48.072;16.286;2023-06-10T01:55:19;17.90;80.00
11597;DHT22;5854;48.072;16.286;2023-06-10T01:57:46;18.00;79.30
11597;DHT22;5854;48.072;16.286;2023-06-10T02:00:14;18.10;78.60
11597;DHT22;5854;48.072;16.286;2023-06-10T02:02:42;18.00;78.50
11597;DHT22;5854;48.072;16.286;2023-06-10T02:05:09;18.00;79.30
11597;DHT22;5854;48.072;16.286;2023-06-10T02:07:36;18.00;79.50
11597;DHT22;5854;48.072;16.286;2023-06-10T02:10:04;17.90;79.00
11597;DHT22;5854;48.072;16.286;2023-06-10T02:12:33;17.80;79.40
11597;DHT22;5854;48.072;16.286;2023-06-10T02:15:00;17.80;80.20
11597;DHT22;5854;48.072;16.286;2023-06-10T02:17:27;17.80;79.50
11597;DHT22;5854;48.072;16.286;2023-06-10T02:19:55;17.70;80.60
11597;DHT22;5854;48.072;16.286;2023-06-10T02:22:23;17.70;82.70
11597;DHT22;5854;48.072;16.286;2023-06-10T02:24:51;17.70;80.40
11597;DHT22;5854;48.072;16.286;2023-06-10T02:27:18;17.70;82.00
11597;DHT22;5854;48.072;16.286;2023-06-10T02:29:47;17.70;81.90
11597;DHT22;5854;48.072;16.286;2023-06-10T02:32:14;17.70;81.80
11597;DHT22;5854;48.072;16.286;2023-06-10T02:34:41;17.70;80.30
11597;DHT22;5854;48.072;16.286;2023-06-10T02:37:09;17.70;81.80
11597;DHT22;5854;48.072;16.286;2023-06-10T02:39:36;17.50;83.70
11597;DHT22;5854;48.072;16.286;2023-06-10T02:42:04;17.40;83.60
11597;DHT22;5854;48.072;16.286;2023-06-10T02:44:32;17.50;85.60
11597;DHT22;5854;48.072;16.286;2023-06-10T02:47:00;17.40;83.70
11597;DHT22;5854;48.072;16.286;2023-06-10T02:49:27;17.40;84.00
11597;DHT22;5854;48.072;16.286;2023-06-10T02:51:54;17.50;83.90
11597;DHT22;5854;48.072;16.286;2023-06-10T02:54:22;17.60;81.70
11597;DHT22;5854;48.072;16.286;2023-06-10T02:56:50;17.60;82.30
11597;DHT22;5854;48.072;16.286;2023-06-10T02:59:18;17.60;81.30
11597;DHT22;5854;48.072;16.286;2023-06-10T03:01:45;17.70;82.30
11597;DHT22;5854;48.072;16.286;2023-06-10T03:04:14;17.70;82.70
11597;DHT22;5854;48.072;16.286;2023-06-10T03:06:41;17.60;82.60
11597;DHT22;5854;48.072;16.286;2023-06-10T03:09:08;17.60;81.00
11597;DHT22;5854;48.072;16.286;2023-06-10T03:11:35;17.60;82.30
11597;DHT22;5854;48.072;16.286;2023-06-10T03:14:02;17.60;81.50
11597;DHT22;5854;48.072;16.286;2023-06-10T03:16:29;17.70;82.80
11597;DHT22;5854;48.072;16.286;2023-06-10T03:18:58;17.70;81.20
11597;DHT22;5854;48.072;16.286;2023-06-10T03:21:26;17.70;83.40
11597;DHT22;5854;48.072;16.286;2023-06-10T03:23:53;17.70;81.40
11597;DHT22;5854;48.072;16.286;2023-06-10T03:26:21;17.70;81.70
11597;DHT22;5854;48.072;16.286;2023-06-10T03:28:48;17.70;82.20
11597;DHT22;5854;48.072;16.286;2023-06-10T03:31:15;17.70;83.20
11597;DHT22;5854;48.072;16.286;2023-06-10T03:33:43;17.80;81.80
11597;DHT22;5854;48.072;16.286;2023-06-10T03:36:10;17.70;81.00
11597;DHT22;5854;48.072;16.286;2023-06-10T03:38:39;17.70;83.40
11597;DHT22;5854;48.072;16.286;2023-06-10T03:41:06;17.70;81.90
11597;DHT22;5854;48.072;16.286;2023-06-10T03:43:33;17.70;82.90
11597;DHT22;5854;48.072;16.286;2023-06-10T03:46:00;17.70;82.70
11597;DHT22;5854;48.072;16.286;2023-06-10T03:48:27;17.80;82.30
11597;DHT22;5854;48.072;16.286;2023-06-10T03:50:56;17.80;80.30
11597;DHT22;5854;48.072;16.286;2023-06-10T03:53:24;17.70;83.20
11597;DHT22;5854;48.072;16.286;2023-06-10T03:55:52;17.70;84.30
11597;DHT22;5854;48.072;16.286;2023-06-10T03:58:19;17.80;80.80
11597;DHT22;5854;48.072;16.286;2023-06-10T04:00:46;17.90;81.50
11597;DHT22;5854;48.072;16.286;2023-06-10T04:03:15;17.90;83.10
11597;DHT22;5854;48.072;16.286;2023-06-10T04:05:42;17.90;82.50
11597;DHT22;5854;48.072;16.286;2023-06-10T04:08:09;17.90;82.20
11597;DHT22;5854;48.072;16.286;2023-06-10T04:10:36;17.90;80.70
11597;DHT22;5854;48.072;16.286;2023-06-10T04:13:04;17.90;84.90
11597;DHT22;5854;48.072;16.286;2023-06-10T04:15:31;17.90;81.00
11597;DHT22;5854;48.072;16.286;2023-06-10T04:17:59;17.90;82.10
11597;DHT22;5854;48.072;16.286;2023-06-10T04:20:26;17.90;83.50
11597;DHT22;5854;48.072;16.286;2023-06-10T04:22:53;17.80;84.00
11597;DHT22;5854;48.072;16.286;2023-06-10T04:25:21;17.90;80.90
11597;DHT22;5854;48.072;16.286;2023-06-10T04:27:48;17.90;80.90
11597;DHT22;5854;48.072;16.286;2023-06-10T04:30:17;18.00;79.60
11597;DHT22;5854;48.072;16.286;2023-06-10T04:32:44;18.00;78.80
11597;DHT22;5854;48.072;16.286;2023-06-10T04:35:12;18.10;80.50
11597;DHT22;5854;48.072;16.286;2023-06-10T04:37:40;18.10;80.70
11597;DHT22;5854;48.072;16.286;2023-06-10T04:40:08;18.10;80.10
11597;DHT22;5854;48.072;16.286;2023-06-10T04:42:36;18.10;81.80
11597;DHT22;5854;48.072;16.286;2023-06-10T04:45:04;18.10;82.00
11597;DHT22;5854;48.072;16.286;2023-06-10T04:47:33;18.20;84.00
11597;DHT22;5854;48.072;16.286;2023-06-10T04:50:01;18.20;77.80
11597;DHT22;5854;48.072;16.286;2023-06-10T04:52:28;18.20;76.80
11597;DHT22;5854;48.072;16.286;2023-06-10T04:54:57;18.20;77.80
11597;DHT22;5854;48.072;16.286;2023-06-10T04:57:24;18.20;76.60
11597;DHT22;5854;48.072;16.286;2023-06-10T04:59:52;18.20;79.80
11597;DHT22;5854;48.072;16.286;2023-06-10T05:02:19;18.30;78.30
11597;DHT22;5854;48.072;16.286;2023-06-10T05:04:48;18.30;79.30
11597;DHT22;5854;48.072;16.286;2023-06-10T05:07:15;18.30;78.00
11597;DHT22;5854;48.072;16.286;2023-06-10T05:09:42;18.30;76.60
11597;DHT22;5854;48.072;16.286;2023-06-10T05:12:09;18.30;77.10
11597;DHT22;5854;48.072;16.286;2023-06-10T05:14:36;18.30;79.60
11597;DHT22;5854;48.072;16.286;2023-06-10T05:17:04;18.40;81.80
11597;DHT22;5854;48.072;16.286;2023-06-10T05:19:32;18.40;82.10
11597;DHT22;5854;48.072;16.286;2023-06-10T05:22:02;18.50;83.90
11597;DHT22;5854;48.072;16.286;2023-06-10T05:24:30;18.50;78.80
11597;DHT22;5854;48.072;16.286;2023-06-10T05:26:57;18.50;82.60
11597;DHT22;5854;48.072;16.286;2023-06-10T05:29:24;18.50;78.00
11597;DHT22;5854;48.072;16.286;2023-06-10T05:31:52;18.50;79.90
11597;DHT22;5854;48.072;16.286;2023-06-10T05:34:22;18.50;78.70
11597;DHT22;5854;48.072;16.286;2023-06-10T05:36:49;18.50;76.50
11597;DHT22;5854;48.072;16.286;2023-06-10T05:39:17;18.60;77.60
11597;DHT22;5854;48.072;16.286;2023-06-10T05:41:45;18.60;79.10
11597;DHT22;5854;48.072;16.286;2023-06-10T05:44:12;18.60;77.80
11597;DHT22;5854;48.072;16.286;2023-06-10T05:46:40;18.60;81.30
11597;DHT22;5854;48.072;16.286;2023-06-10T05:49:07;18.60;77.30
11597;DHT22;5854;48.072;16.286;2023-06-10T05:51:34;18.60;78.40
11597;DHT22;5854;48.072;16.286;2023-06-10T05:54:02;18.60;79.70
11597;DHT22;5854;48.072;16.286;2023-06-10T05:56:31;18.60;75.40
11597;DHT22;5854;48.072;16.286;2023-06-10T05:58:58;18.60;75.30
11597;DHT22;5854;48.072;16.286;2023-06-10T06:01:25;18.50;78.10
11597;DHT22;5854;48.072;16.286;2023-06-10T06:03:52;18.60;80.70
11597;DHT22;5854;48.072;16.286;2023-06-10T06:06:19;18.60;79.70
11597;DHT22;5854;48.072;16.286;2023-06-10T06:08:47;18.50;79.20
11597;DHT22;5854;48.072;16.286;2023-06-10T06:11:14;18.50;79.00
11597;DHT22;5854;48.072;16.286;2023-06-10T06:13:42;18.40;79.70
11597;DHT22;5854;48.072;16.286;2023-06-10T06:16:09;18.50;78.10
11597;DHT22;5854;48.072;16.286;2023-06-10T06:18:36;18.60;81.80
11597;DHT22;5854;48.072;16.286;2023-06-10T06:21:03;18.60;79.60
11597;DHT22;5854;48.072;16.286;2023-06-10T06:23:30;18.60;79.10
11597;DHT22;5854;48.072;16.286;2023-06-10T06:25:57;18.60;79.10
11597;DHT22;5854;48.072;16.286;2023-06-10T06:28:24;18.70;79.50
11597;DHT22;5854;48.072;16.286;2023-06-10T06:30:56;19.00;77.20
11597;DHT22;5854;48.072;16.286;2023-06-10T06:33:23;19.20;76.00
11597;DHT22;5854;48.072;16.286;2023-06-10T06:35:51;19.20;79.40
11597;DHT22;5854;48.072;16.286;2023-06-10T06:38:18;19.20;76.40
11597;DHT22;5854;48.072;16.286;2023-06-10T06:40:45;19.20;75.90
11597;DHT22;5854;48.072;16.286;2023-06-10T06:43:12;19.20;77.10
11597;DHT22;5854;48.072;16.286;2023-06-10T06:45:39;19.20;77.30
11597;DHT22;5854;48.072;16.286;2023-06-10T06:48:08;19.20;78.60
11597;DHT22;5854;48.072;16.286;2023-06-10T06:50:34;19.20;74.20
11597;DHT22;5854;48.072;16.286;2023-06-10T06:53:02;19.10;78.00
11597;DHT22;5854;48.072;16.286;2023-06-10T06:55:29;19.00;77.00
11597;DHT22;5854;48.072;16.286;2023-06-10T06:57:56;19.10;75.10
11597;DHT22;5854;48.072;16.286;2023-06-10T07:00:24;19.00;75.10
11597;DHT22;5854;48.072;16.286;2023-06-10T07:02:51;19.00;75.30
11597;DHT22;5854;48.072;16.286;2023-06-10T07:05:19;19.00;78.20
11597;DHT22;5854;48.072;16.286;2023-06-10T07:07:46;19.10;79.50
11597;DHT22;5854;48.072;16.286;2023-06-10T07:10:13;19.10;77.10
11597;DHT22;5854;48.072;16.286;2023-06-10T07:12:41;19.00;76.30
11597;DHT22;5854;48.072;16.286;2023-06-10T07:15:08;18.90;76.80
11597;DHT22;5854;48.072;16.286;2023-06-10T07:17:35;18.90;78.00
11597;DHT22;5854;48.072;16.286;2023-06-10T07:20:03;18.80;77.90
11597;DHT22;5854;48.072;16.286;2023-06-10T07:22:32;18.80;80.20
11597;DHT22;5854;48.072;16.286;2023-06-10T07:24:59;18.70;82.20
11597;DHT22;5854;48.072;16.286;2023-06-10T07:27:26;18.80;77.60
11597;DHT22;5854;48.072;16.286;2023-06-10T07:29:53;18.80;80.10
11597;DHT22;5854;48.072;16.286;2023-06-10T07:32:20;18.90;75.70
11597;DHT22;5854;48.072;16.286;2023-06-10T07:34:49;19.00;76.50
11597;DHT22;5854;48.072;16.286;2023-06-10T07:37:16;19.20;77.10
11597;DHT22;5854;48.072;16.286;2023-06-10T07:39:46;19.20;77.70
11597;DHT22;5854;48.072;16.286;2023-06-10T07:42:13;19.30;75.40
11597;DHT22;5854;48.072;16.286;2023-06-10T07:44:40;19.50;74.00
11597;DHT22;5854;48.072;16.286;2023-06-10T07:47:07;19.60;73.00
11597;DHT22;5854;48.072;16.286;2023-06-10T07:49:34;19.80;77.10
11597;DHT22;5854;48.072;16.286;2023-06-10T07:52:01;19.90;72.60
11597;DHT22;5854;48.072;16.286;2023-06-10T07:54:28;20.10;74.40
11597;DHT22;5854;48.072;16.286;2023-06-10T07:56:57;20.20;70.60
11597;DHT22;5854;48.072;16.286;2023-06-10T07:59:24;20.30;71.70
11597;DHT22;5854;48.072;16.286;2023-06-10T08:01:52;20.30;68.50
11597;DHT22;5854;48.072;16.286;2023-06-10T08:04:19;20.30;69.80
11597;DHT22;5854;48.072;16.286;2023-06-10T08:06:46;20.10;70.40
11597;DHT22;5854;48.072;16.286;2023-06-10T08:09:13;20.00;72.20
11597;DHT22;5854;48.072;16.286;2023-06-10T08:11:40;19.90;71.60
11597;DHT22;5854;48.072;16.286;2023-06-10T08:14:09;19.90;73.40
11597;DHT22;5854;48.072;16.286;2023-06-10T08:16:36;20.10;71.40
11597;DHT22;5854;48.072;16.286;2023-06-10T08:19:03;20.20;69.20
11597;DHT22;5854;48.072;16.286;2023-06-10T08:21:30;20.30;68.30
11597;DHT22;5854;48.072;16.286;2023-06-10T08:23:57;20.50;68.70
11597;DHT22;5854;48.072;16.286;2023-06-10T08:26:24;20.50;70.60
11597;DHT22;5854;48.072;16.286;2023-06-10T08:28:51;20.50;69.10
11597;DHT22;5854;48.072;16.286;2023-06-10T08:31:21;20.50;68.60
11597;DHT22;5854;48.072;16.286;2023-06-10T08:33:48;20.30;69.00
11597;DHT22;5854;48.072;16.286;2023-06-10T08:36:15;20.30;71.40
11597;DHT22;5854;48.072;16.286;2023-06-10T08:38:42;20.00;70.00
11597;DHT22;5854;48.072;16.286;2023-06-10T08:41:10;20.00;73.50
11597;DHT22;5854;48.072;16.286;2023-06-10T08:43:44;19.90;71.50
11597;DHT22;5854;48.072;16.286;2023-06-10T08:46:14;19.90;72.30
11597;DHT22;5854;48.072;16.286;2023-06-10T08:48:44;19.90;72.40
11597;DHT22;5854;48.072;16.286;2023-06-10T08:51:11;20.10;74.20
11597;DHT22;5854;48.072;16.286;2023-06-10T08:53:47;20.10;68.90
11597;DHT22;5854;48.072;16.286;2023-06-10T08:56:16;20.10;70.80
11597;DHT22;5854;48.072;16.286;2023-06-10T08:58:45;20.10;69.50
11597;DHT22;5854;48.072;16.286;2023-06-10T09:01:13;20.20;72.90
11597;DHT22;5854;48.072;16.286;2023-06-10T09:03:43;20.30;71.90
11597;DHT22;5854;48.072;16.286;2023-06-10T09:06:10;20.20;68.90
11597;DHT22;5854;48.072;16.286;2023-06-10T09:08:37;20.20;71.40
11597;DHT22;5854;48.072;16.286;2023-06-10T09:11:05;20.10;72.70
11597;DHT22;5854;48.072;16.286;2023-06-10T09:13:32;20.10;72.00
11597;DHT22;5854;48.072;16.286;2023-06-10T09:15:59;20.20;71.30
11597;DHT22;5854;48.072;16.286;2023-06-10T09:18:28;20.20;71.50
11597;DHT22;5854;48.072;16.286;2023-06-10T09:20:56;20.20;71.90
11597;DHT22;5854;48.072;16.286;2023-06-10T09:23:24;20.20;70.60
11597;DHT22;5854;48.072;16.286;2023-06-10T09:25:56;20.20;73.00
11597;DHT22;5854;48.072;16.286;2023-06-10T09:28:24;20.30;73.20
11597;DHT22;5854;48.072;16.286;2023-06-10T09:31:02;20.40;71.00
11597;DHT22;5854;48.072;16.286;2023-06-10T09:33:30;20.30;72.50
11597;DHT22;5854;48.072;16.286;2023-06-10T09:36:01;20.40;69.90
11597;DHT22;5854;48.072;16.286;2023-06-10T09:38:33;20.30;72.00
11597;DHT22;5854;48.072;16.286;2023-06-10T09:41:01;20.30;71.00
11597;DHT22;5854;48.072;16.286;2023-06-10T09:43:39;20.20;69.30
11597;DHT22;5854;48.072;16.286;2023-06-10T09:46:14;20.20;70.60
11597;DHT22;5854;48.072;16.286;2023-06-10T09:48:43;20.20;74.60
11597;DHT22;5854;48.072;16.286;2023-06-10T09:51:13;20.30;73.10
11597;DHT22;5854;48.072;16.286;2023-06-10T09:53:42;20.50;71.10
11597;DHT22;5854;48.072;16.286;2023-06-10T09:56:09;20.70;69.70
11597;DHT22;5854;48.072;16.286;2023-06-10T09:58:37;20.80;70.30
11597;DHT22;5854;48.072;16.286;2023-06-10T10:01:05;21.00;68.10
11597;DHT22;5854;48.072;16.286;2023-06-10T10:03:33;21.00;67.80
11597;DHT22;5854;48.072;16.286;2023-06-10T10:06:00;21.00;68.00
11597;DHT22;5854;48.072;16.286;2023-06-10T10:08:29;21.00;68.10
11597;DHT22;5854;48.072;16.286;2023-06-10T10:10:57;21.10;68.10
11597;DHT22;5854;48.072;16.286;2023-06-10T10:13:25;21.20;66.00
11597;DHT22;5854;48.072;16.286;2023-06-10T10:15:54;21.30;65.40
11597;DHT22;5854;48.072;16.286;2023-06-10T10:18:24;21.50;69.60
11597;DHT22;5854;48.072;16.286;2023-06-10T10:20:56;21.60;64.70
11597;DHT22;5854;48.072;16.286;2023-06-10T10:23:28;21.80;65.50
11597;DHT22;5854;48.072;16.286;2023-06-10T10:26:00;22.00;63.70
11597;DHT22;5854;48.072;16.286;2023-06-10T10:28:39;22.20;63.00
11597;DHT22;5854;48.072;16.286;2023-06-10T10:31:09;22.20;61.40
11597;DHT22;5854;48.072;16.286;2023-06-10T10:33:42;22.20;60.40
11597;DHT22;5854;48.072;16.286;2023-06-10T10:36:14;22.20;62.60
11597;DHT22;5854;48.072;16.286;2023-06-10T10:38:46;22.40;63.40
11597;DHT22;5854;48.072;16.286;2023-06-10T10:41:15;22.50;61.60
11597;DHT22;5854;48.072;16.286;2023-06-10T10:43:44;22.50;60.00
11597;DHT22;5854;48.072;16.286;2023-06-10T10:46:13;22.50;62.70
11597;DHT22;5854;48.072;16.286;2023-06-10T10:48:42;22.50;61.60
11597;DHT22;5854;48.072;16.286;2023-06-10T10:51:09;22.50;61.90
11597;DHT22;5854;48.072;16.286;2023-06-10T10:53:37;22.50;60.50
11597;DHT22;5854;48.072;16.286;2023-06-10T10:56:07;22.70;60.60
11597;DHT22;5854;48.072;16.286;2023-06-10T10:58:36;22.90;58.00
11597;DHT22;5854;48.072;16.286;2023-06-10T11:01:12;23.00;59.70
11597;DHT22;5854;48.072;16.286;2023-06-10T11:03:44;23.00;58.10
11597;DHT22;5854;48.072;16.286;2023-06-10T11:06:13;23.00;57.90
11597;DHT22;5854;48.072;16.286;2023-06-10T11:08:49;23.00;61.50
11597;DHT22;5854;48.072;16.286;2023-06-10T11:11:23;23.10;58.80
11597;DHT22;5854;48.072;16.286;2023-06-10T11:14:07;23.20;62.50
11597;DHT22;5854;48.072;16.286;2023-06-10T11:16:41;23.20;58.60
11597;DHT22;5854;48.072;16.286;2023-06-10T11:19:09;23.20;58.40
11597;DHT22;5854;48.072;16.286;2023-06-10T11:21:57;23.50;58.20
11597;DHT22;5854;48.072;16.286;2023-06-10T11:24:26;23.60;56.10
11597;DHT22;5854;48.072;16.286;2023-06-10T11:26:54;23.30;58.10
11597;DHT22;5854;48.072;16.286;2023-06-10T11:29:21;23.70;58.00
11597;DHT22;5854;48.072;16.286;2023-06-10T11:31:51;25.20;52.10
11597;DHT22;5854;48.072;16.286;2023-06-10T11:34:24;24.70;52.40
11597;DHT22;5854;48.072;16.286;2023-06-10T11:36:53;23.80;54.70
11597;DHT22;5854;48.072;16.286;2023-06-10T11:39:21;23.60;56.30
11597;DHT22;5854;48.072;16.286;2023-06-10T11:41:51;23.60;55.80
11597;DHT22;5854;48.072;16.286;2023-06-10T11:44:20;23.40;56.00
11597;DHT22;5854;48.072;16.286;2023-06-10T11:46:48;23.00;57.80
11597;DHT22;5854;48.072;16.286;2023-06-10T11:49:16;22.90;58.00
11597;DHT22;5854;48.072;16.286;2023-06-10T11:51:43;22.90;57.80
11597;DHT22;5854;48.072;16.286;2023-06-10T11:54:15;23.40;56.20
11597;DHT22;5854;48.072;16.286;2023-06-10T11:56:43;24.30;53.50
11597;DHT22;5854;48.072;16.286;2023-06-10T11:59:11;25.80;49.20
11597;DHT22;5854;48.072;16.286;2023-06-10T12:01:43;26.90;50.20
11597;DHT22;5854;48.072;16.286;2023-06-10T12:04:12;27.90;44.60
11597;DHT22;5854;48.072;16.286;2023-06-10T12:06:41;28.40;43.90
11597;DHT22;5854;48.072;16.286;2023-06-10T12:09:20;28.70;41.70
11597;DHT22;5854;48.072;16.286;2023-06-10T12:11:50;29.20;41.20
11597;DHT22;5854;48.072;16.286;2023-06-10T12:14:51;29.30;40.20
11597;DHT22;5854;48.072;16.286;2023-06-10T12:17:23;29.10;40.60
11597;DHT22;5854;48.072;16.286;2023-06-10T12:19:50;26.60;45.90
11597;DHT22;5854;48.072;16.286;2023-06-10T12:22:17;25.40;48.70
11597;DHT22;5854;48.072;16.286;2023-06-10T12:24:45;25.30;52.30
11597;DHT22;5854;48.072;16.286;2023-06-10T12:27:25;26.90;46.20
11597;DHT22;5854;48.072;16.286;2023-06-10T12:29:55;27.80;42.50
11597;DHT22;5854;48.072;16.286;2023-06-10T12:32:35;26.80;46.10
11597;DHT22;5854;48.072;16.286;2023-06-10T12:35:04;26.20;48.00
11597;DHT22;5854;48.072;16.286;2023-06-10T12:37:32;27.00;46.00
11597;DHT22;5854;48.072;16.286;2023-06-10T12:40:00;27.50;44.60
11597;DHT22;5854;48.072;16.286;2023-06-10T12:42:28;28.20;43.20
11597;DHT22;5854;48.072;16.286;2023-06-10T12:44:55;27.80;42.90
11597;DHT22;5854;48.072;16.286;2023-06-10T12:47:29;26.30;45.20
11597;DHT22;5854;48.072;16.286;2023-06-10T12:49:59;26.10;47.00
11597;DHT22;5854;48.072;16.286;2023-06-10T12:52:26;26.00;47.90
11597;DHT22;5854;48.072;16.286;2023-06-10T12:54:53;25.90;47.50
11597;DHT22;5854;48.072;16.286;2023-06-10T12:57:21;25.30;50.60
11597;DHT22;5854;48.072;16.286;2023-06-10T12:59:48;25.00;50.90
11597;DHT22;5854;48.072;16.286;2023-06-10T13:02:18;24.90;50.60
11597;DHT22;5854;48.072;16.286;2023-06-10T13:04:46;24.90;51.10
11597;DHT22;5854;48.072;16.286;2023-06-10T13:07:14;24.40;51.40
11597;DHT22;5854;48.072;16.286;2023-06-10T13:09:41;24.00;53.40
11597;DHT22;5854;48.072;16.286;2023-06-10T13:12:08;23.70;54.60
11597;DHT22;5854;48.072;16.286;2023-06-10T13:14:35;23.50;55.80
11597;DHT22;5854;48.072;16.286;2023-06-10T13:17:03;23.40;56.00
11597;DHT22;5854;48.072;16.286;2023-06-10T13:19:31;23.10;59.00
11597;DHT22;5854;48.072;16.286;2023-06-10T13:21:58;22.90;60.60
11597;DHT22;5854;48.072;16.286;2023-06-10T13:24:26;22.70;65.40
11597;DHT22;5854;48.072;16.286;2023-06-10T13:26:53;22.20;67.50
11597;DHT22;5854;48.072;16.286;2023-06-10T13:29:21;21.90;72.20
11597;DHT22;5854;48.072;16.286;2023-06-10T13:31:48;21.40;79.00
11597;DHT22;5854;48.072;16.286;2023-06-10T13:34:15;21.20;76.70
11597;DHT22;5854;48.072;16.286;2023-06-10T13:36:42;20.80;80.70
11597;DHT22;5854;48.072;16.286;2023-06-10T13:39:09;20.70;79.60
11597;DHT22;5854;48.072;16.286;2023-06-10T13:41:37;20.70;81.20
11597;DHT22;5854;48.072;16.286;2023-06-10T13:44:04;20.70;80.50
11597;DHT22;5854;48.072;16.286;2023-06-10T13:46:31;20.90;80.60
11597;DHT22;5854;48.072;16.286;2023-06-10T13:48:58;21.10;77.20
11597;DHT22;5854;48.072;16.286;2023-06-10T13:51:25;21.40;77.90
11597;DHT22;5854;48.072;16.286;2023-06-10T13:53:52;21.40;75.90
11597;DHT22;5854;48.072;16.286;2023-06-10T13:56:19;21.50;76.40
11597;DHT22;5854;48.072;16.286;2023-06-10T13:58:47;21.70;75.70
11597;DHT22;5854;48.072;16.286;2023-06-10T14:01:14;21.80;79.50
11597;DHT22;5854;48.072;16.286;2023-06-10T14:03:40;21.90;75.90
11597;DHT22;5854;48.072;16.286;2023-06-10T14:06:07;22.00;72.90
11597;DHT22;5854;48.072;16.286;2023-06-10T14:08:35;21.90;76.30
11597;DHT22;5854;48.072;16.286;2023-06-10T14:11:02;21.90;72.20
11597;DHT22;5854;48.072;16.286;2023-06-10T14:13:29;21.90;72.80
11597;DHT22;5854;48.072;16.286;2023-06-10T14:15:57;22.00;74.60
11597;DHT22;5854;48.072;16.286;2023-06-10T14:18:28;21.90;72.90
11597;DHT22;5854;48.072;16.286;2023-06-10T14:20:54;22.00;78.70
11597;DHT22;5854;48.072;16.286;2023-06-10T14:23:21;22.10;76.40
11597;DHT22;5854;48.072;16.286;2023-06-10T14:25:49;22.10;75.90
11597;DHT22;5854;48.072;16.286;2023-06-10T14:28:16;22.10;76.50
11597;DHT22;5854;48.072;16.286;2023-06-10T14:30:43;22.10;80.50
11597;DHT22;5854;48.072;16.286;2023-06-10T14:33:11;22.10;75.40
11597;DHT22;5854;48.072;16.286;2023-06-10T14:35:38;22.10;74.90
11597;DHT22;5854;48.072;16.286;2023-06-10T14:38:05;21.90;78.40
11597;DHT22;5854;48.072;16.286;2023-06-10T14:40:32;21.80;75.10
11597;DHT22;5854;48.072;16.286;2023-06-10T14:42:59;21.80;78.50
11597;DHT22;5854;48.072;16.286;2023-06-10T14:45:26;21.90;76.20
11597;DHT22;5854;48.072;16.286;2023-06-10T14:47:53;21.80;76.70
11597;DHT22;5854;48.072;16.286;2023-06-10T14:50:21;21.90;80.60
11597;DHT22;5854;48.072;16.286;2023-06-10T14:52:48;22.00;83.00
11597;DHT22;5854;48.072;16.286;2023-06-10T14:55:15;22.00;78.90
11597;DHT22;5854;48.072;16.286;2023-06-10T14:57:42;22.10;78.50
11597;DHT22;5854;48.072;16.286;2023-06-10T15:00:09;22.10;84.70
11597;DHT22;5854;48.072;16.286;2023-06-10T15:02:40;22.00;78.90
11597;DHT22;5854;48.072;16.286;2023-06-10T15:05:07;22.00;73.20
11597;DHT22;5854;48.072;16.286;2023-06-10T15:07:36;22.00;72.90
11597;DHT22;5854;48.072;16.286;2023-06-10T15:10:03;22.00;74.30
11597;DHT22;5854;48.072;16.286;2023-06-10T15:12:30;21.90;75.80
11597;DHT22;5854;48.072;16.286;2023-06-10T15:14:57;22.00;73.10
11597;DHT22;5854;48.072;16.286;2023-06-10T15:17:24;22.00;76.40
11597;DHT22;5854;48.072;16.286;2023-06-10T15:19:51;22.00;74.80
11597;DHT22;5854;48.072;16.286;2023-06-10T15:22:17;21.90;75.10
11597;DHT22;5854;48.072;16.286;2023-06-10T15:24:46;22.10;81.40
11597;DHT22;5854;48.072;16.286;2023-06-10T15:27:12;22.00;74.90
11597;DHT22;5854;48.072;16.286;2023-06-10T15:29:39;22.10;81.40
11597;DHT22;5854;48.072;16.286;2023-06-10T15:32:06;22.10;80.70
11597;DHT22;5854;48.072;16.286;2023-06-10T15:34:34;22.10;75.50
11597;DHT22;5854;48.072;16.286;2023-06-10T15:37:01;22.20;71.40